Lincolnville, South Carolina
Current Conditions -  °F | °C
As of 11:55 AM on Monday 26 Jan 2015 (Local Time) from KDYB Reporting Station
Broken Clouds Broken Clouds  
Wind Chill: 55°   Ceiling: 2900
Heat Index: 55°   Visibility: 10mi
Dew Point: 43°   Wind: 13mph
Humidity: 63%   Direction: 270°W
Pressure: 29.69"   Gusts: 18mph
Location:  32.9158°N, 80.2679°W
Report Text: KDYB 261655Z AUTO 27011G16KT 10SM BKN029 13/06 A2969 RMK AO1
Loading
Personal Weather Stations






























Interactive Weather Map New forecast layout! Learn more

10-Day Weather Forecast

Advertisements
Track Severe Weather on mobile